sensor_id;sensor_type;location;lat;lon;timestamp;P1;durP1;ratioP1;P2;durP2;ratioP2
17197;SDS011;8715;51.010;6.812;2023-12-28T00:00:29;864.38;;;812.25;;
17197;SDS011;8715;51.010;6.812;2023-12-28T00:03:14;859.55;;;808.35;;
17197;SDS011;8715;51.010;6.812;2023-12-28T00:05:59;861.38;;;809.65;;
17197;SDS011;8715;51.010;6.812;2023-12-28T00:08:44;861.17;;;809.30;;
17197;SDS011;8715;51.010;6.812;2023-12-28T00:11:29;864.80;;;812.72;;
17197;SDS011;8715;51.010;6.812;2023-12-28T00:14:15;855.60;;;804.67;;
17197;SDS011;8715;51.010;6.812;2023-12-28T00:17:00;875.97;;;823.33;;
17197;SDS011;8715;51.010;6.812;2023-12-28T00:19:45;858.38;;;807.35;;
17197;SDS011;8715;51.010;6.812;2023-12-28T00:22:30;861.65;;;810.53;;
17197;SDS011;8715;51.010;6.812;2023-12-28T00:25:16;874.30;;;821.95;;
17197;SDS011;8715;51.010;6.812;2023-12-28T00:28:01;859.10;;;808.20;;
17197;SDS011;8715;51.010;6.812;2023-12-28T00:30:47;854.15;;;803.42;;
17197;SDS011;8715;51.010;6.812;2023-12-28T00:33:32;859.15;;;807.85;;
17197;SDS011;8715;51.010;6.812;2023-12-28T00:36:17;859.25;;;808.22;;
17197;SDS011;8715;51.010;6.812;2023-12-28T00:39:02;858.60;;;807.75;;
17197;SDS011;8715;51.010;6.812;2023-12-28T00:41:47;856.30;;;805.50;;
17197;SDS011;8715;51.010;6.812;2023-12-28T00:44:32;861.58;;;810.63;;
17197;SDS011;8715;51.010;6.812;2023-12-28T00:47:19;860.95;;;809.88;;
17197;SDS011;8715;51.010;6.812;2023-12-28T00:50:04;860.35;;;809.53;;
17197;SDS011;8715;51.010;6.812;2023-12-28T00:52:49;868.83;;;817.40;;
17197;SDS011;8715;51.010;6.812;2023-12-28T00:55:34;854.50;;;804.03;;
17197;SDS011;8715;51.010;6.812;2023-12-28T00:58:19;856.25;;;805.55;;
17197;SDS011;8715;51.010;6.812;2023-12-28T01:01:04;871.42;;;819.58;;
17197;SDS011;8715;51.010;6.812;2023-12-28T01:03:51;854.83;;;804.40;;
17197;SDS011;8715;51.010;6.812;2023-12-28T01:06:36;858.45;;;807.70;;
17197;SDS011;8715;51.010;6.812;2023-12-28T01:09:21;856.47;;;805.88;;
17197;SDS011;8715;51.010;6.812;2023-12-28T01:12:06;868.03;;;816.47;;
17197;SDS011;8715;51.010;6.812;2023-12-28T01:14:51;860.47;;;809.25;;
17197;SDS011;8715;51.010;6.812;2023-12-28T01:17:37;857.38;;;806.50;;
17197;SDS011;8715;51.010;6.812;2023-12-28T01:20:23;856.92;;;806.25;;
17197;SDS011;8715;51.010;6.812;2023-12-28T01:23:09;854.47;;;804.13;;
17197;SDS011;8715;51.010;6.812;2023-12-28T01:25:54;857.10;;;806.22;;
17197;SDS011;8715;51.010;6.812;2023-12-28T01:28:40;860.35;;;809.42;;
17197;SDS011;8715;51.010;6.812;2023-12-28T01:31:24;863.42;;;811.88;;
17197;SDS011;8715;51.010;6.812;2023-12-28T01:34:10;856.22;;;805.47;;
17197;SDS011;8715;51.010;6.812;2023-12-28T01:36:58;858.60;;;807.88;;
17197;SDS011;8715;51.010;6.812;2023-12-28T01:39:42;872.88;;;820.67;;
17197;SDS011;8715;51.010;6.812;2023-12-28T01:42:27;858.17;;;807.03;;
17197;SDS011;8715;51.010;6.812;2023-12-28T01:45:13;853.83;;;803.25;;
17197;SDS011;8715;51.010;6.812;2023-12-28T01:47:59;857.20;;;805.78;;
17197;SDS011;8715;51.010;6.812;2023-12-28T01:50:44;859.58;;;808.53;;
17197;SDS011;8715;51.010;6.812;2023-12-28T01:53:31;858.55;;;807.22;;
17197;SDS011;8715;51.010;6.812;2023-12-28T01:56:16;860.95;;;809.47;;
17197;SDS011;8715;51.010;6.812;2023-12-28T01:59:01;861.70;;;810.08;;
17197;SDS011;8715;51.010;6.812;2023-12-28T02:01:46;867.33;;;815.40;;
17197;SDS011;8715;51.010;6.812;2023-12-28T02:04:32;863.25;;;811.80;;
17197;SDS011;8715;51.010;6.812;2023-12-28T02:07:17;859.60;;;808.55;;
17197;SDS011;8715;51.010;6.812;2023-12-28T02:10:05;861.95;;;810.33;;
17197;SDS011;8715;51.010;6.812;2023-12-28T02:12:50;862.67;;;811.33;;
17197;SDS011;8715;51.010;6.812;2023-12-28T02:15:36;860.13;;;809.25;;
17197;SDS011;8715;51.010;6.812;2023-12-28T02:18:21;877.20;;;824.50;;
17197;SDS011;8715;51.010;6.812;2023-12-28T02:21:08;858.90;;;807.55;;
17197;SDS011;8715;51.010;6.812;2023-12-28T02:23:53;861.88;;;810.50;;
17197;SDS011;8715;51.010;6.812;2023-12-28T02:26:40;856.42;;;805.70;;
17197;SDS011;8715;51.010;6.812;2023-12-28T02:29:25;853.83;;;803.38;;
17197;SDS011;8715;51.010;6.812;2023-12-28T02:32:10;857.05;;;805.92;;
17197;SDS011;8715;51.010;6.812;2023-12-28T02:34:58;854.70;;;804.05;;
17197;SDS011;8715;51.010;6.812;2023-12-28T02:37:44;861.67;;;810.47;;
17197;SDS011;8715;51.010;6.812;2023-12-28T02:40:33;857.45;;;806.30;;
17197;SDS011;8715;51.010;6.812;2023-12-28T02:43:22;855.40;;;804.65;;
17197;SDS011;8715;51.010;6.812;2023-12-28T02:46:07;859.85;;;808.78;;
17197;SDS011;8715;51.010;6.812;2023-12-28T02:48:52;858.28;;;807.15;;
17197;SDS011;8715;51.010;6.812;2023-12-28T02:51:41;861.10;;;809.45;;
17197;SDS011;8715;51.010;6.812;2023-12-28T02:54:27;860.92;;;809.50;;
17197;SDS011;8715;51.010;6.812;2023-12-28T02:57:12;855.58;;;804.47;;
17197;SDS011;8715;51.010;6.812;2023-12-28T03:00:03;855.45;;;804.65;;
17197;SDS011;8715;51.010;6.812;2023-12-28T03:02:49;855.90;;;805.00;;
17197;SDS011;8715;51.010;6.812;2023-12-28T03:05:34;858.08;;;806.88;;
17197;SDS011;8715;51.010;6.812;2023-12-28T03:08:19;859.45;;;808.13;;
17197;SDS011;8715;51.010;6.812;2023-12-28T03:11:05;857.05;;;806.08;;
17197;SDS011;8715;51.010;6.812;2023-12-28T03:13:50;858.35;;;807.17;;
17197;SDS011;8715;51.010;6.812;2023-12-28T03:16:36;861.58;;;810.10;;
17197;SDS011;8715;51.010;6.812;2023-12-28T03:19:21;855.95;;;804.92;;
17197;SDS011;8715;51.010;6.812;2023-12-28T03:22:06;856.65;;;805.97;;
17197;SDS011;8715;51.010;6.812;2023-12-28T03:24:51;854.42;;;804.10;;
17197;SDS011;8715;51.010;6.812;2023-12-28T03:27:37;869.42;;;817.97;;
17197;SDS011;8715;51.010;6.812;2023-12-28T03:30:21;853.33;;;803.25;;
17197;SDS011;8715;51.010;6.812;2023-12-28T03:33:08;855.63;;;805.25;;
17197;SDS011;8715;51.010;6.812;2023-12-28T03:35:53;853.90;;;803.67;;
17197;SDS011;8715;51.010;6.812;2023-12-28T03:38:39;850.83;;;801.15;;
17197;SDS011;8715;51.010;6.812;2023-12-28T03:41:24;850.20;;;800.60;;
17197;SDS011;8715;51.010;6.812;2023-12-28T03:44:09;847.30;;;798.35;;
17197;SDS011;8715;51.010;6.812;2023-12-28T03:46:54;851.72;;;802.13;;
17197;SDS011;8715;51.010;6.812;2023-12-28T03:49:41;871.60;;;820.40;;
17197;SDS011;8715;51.010;6.812;2023-12-28T03:52:26;849.08;;;800.03;;
17197;SDS011;8715;51.010;6.812;2023-12-28T03:55:13;864.65;;;814.20;;
17197;SDS011;8715;51.010;6.812;2023-12-28T03:57:58;866.45;;;815.70;;
17197;SDS011;8715;51.010;6.812;2023-12-28T04:00:43;841.22;;;793.35;;
17197;SDS011;8715;51.010;6.812;2023-12-28T04:03:28;846.80;;;798.28;;
17197;SDS011;8715;51.010;6.812;2023-12-28T04:06:14;850.10;;;801.42;;
17197;SDS011;8715;51.010;6.812;2023-12-28T04:09:00;847.58;;;798.95;;
17197;SDS011;8715;51.010;6.812;2023-12-28T04:11:45;849.08;;;800.33;;
17197;SDS011;8715;51.010;6.812;2023-12-28T04:14:29;846.35;;;797.80;;
17197;SDS011;8715;51.010;6.812;2023-12-28T04:17:14;845.22;;;796.90;;
17197;SDS011;8715;51.010;6.812;2023-12-28T04:19:59;838.28;;;791.03;;
17197;SDS011;8715;51.010;6.812;2023-12-28T04:22:46;840.92;;;793.28;;
17197;SDS011;8715;51.010;6.812;2023-12-28T04:25:31;846.85;;;798.60;;
17197;SDS011;8715;51.010;6.812;2023-12-28T04:28:16;845.30;;;797.08;;
17197;SDS011;8715;51.010;6.812;2023-12-28T04:31:02;840.88;;;793.25;;
17197;SDS011;8715;51.010;6.812;2023-12-28T04:33:47;837.40;;;790.22;;
17197;SDS011;8715;51.010;6.812;2023-12-28T04:36:32;840.95;;;793.35;;
17197;SDS011;8715;51.010;6.812;2023-12-28T04:39:18;842.80;;;795.05;;
17197;SDS011;8715;51.010;6.812;2023-12-28T04:42:03;844.25;;;796.55;;
17197;SDS011;8715;51.010;6.812;2023-12-28T04:44:48;841.30;;;794.00;;
17197;SDS011;8715;51.010;6.812;2023-12-28T04:47:34;838.35;;;791.42;;
17197;SDS011;8715;51.010;6.812;2023-12-28T04:50:18;838.03;;;791.22;;
17197;SDS011;8715;51.010;6.812;2023-12-28T04:53:04;840.20;;;793.33;;
17197;SDS011;8715;51.010;6.812;2023-12-28T04:55:50;853.00;;;804.75;;
17197;SDS011;8715;51.010;6.812;2023-12-28T04:58:35;838.28;;;791.50;;
17197;SDS011;8715;51.010;6.812;2023-12-28T05:01:20;841.13;;;794.38;;
17197;SDS011;8715;51.010;6.812;2023-12-28T05:04:06;840.65;;;794.10;;
17197;SDS011;8715;51.010;6.812;2023-12-28T05:06:51;841.25;;;794.47;;
17197;SDS011;8715;51.010;6.812;2023-12-28T05:09:36;835.13;;;789.00;;
17197;SDS011;8715;51.010;6.812;2023-12-28T05:12:22;832.60;;;786.72;;
17197;SDS011;8715;51.010;6.812;2023-12-28T05:15:08;841.75;;;794.90;;
17197;SDS011;8715;51.010;6.812;2023-12-28T05:17:53;831.42;;;785.72;;
17197;SDS011;8715;51.010;6.812;2023-12-28T05:20:38;839.25;;;792.63;;
17197;SDS011;8715;51.010;6.812;2023-12-28T05:23:24;833.67;;;787.63;;
17197;SDS011;8715;51.010;6.812;2023-12-28T05:26:09;828.25;;;782.25;;
17197;SDS011;8715;51.010;6.812;2023-12-28T05:28:56;836.28;;;790.15;;
17197;SDS011;8715;51.010;6.812;2023-12-28T05:31:41;829.88;;;784.38;;
17197;SDS011;8715;51.010;6.812;2023-12-28T05:34:25;830.97;;;785.42;;
17197;SDS011;8715;51.010;6.812;2023-12-28T05:37:11;833.45;;;787.67;;
17197;SDS011;8715;51.010;6.812;2023-12-28T05:39:55;828.00;;;782.45;;
17197;SDS011;8715;51.010;6.812;2023-12-28T05:42:41;824.58;;;779.58;;
17197;SDS011;8715;51.010;6.812;2023-12-28T05:45:27;832.78;;;787.20;;
17197;SDS011;8715;51.010;6.812;2023-12-28T05:48:12;840.47;;;793.88;;
17197;SDS011;8715;51.010;6.812;2023-12-28T05:50:57;829.38;;;784.05;;
17197;SDS011;8715;51.010;6.812;2023-12-28T05:53:42;833.92;;;787.90;;
17197;SDS011;8715;51.010;6.812;2023-12-28T05:56:27;831.78;;;785.92;;
17197;SDS011;8715;51.010;6.812;2023-12-28T05:59:13;841.55;;;794.83;;
17197;SDS011;8715;51.010;6.812;2023-12-28T06:01:59;842.55;;;795.55;;
17197;SDS011;8715;51.010;6.812;2023-12-28T06:04:44;839.03;;;792.55;;
17197;SDS011;8715;51.010;6.812;2023-12-28T06:07:29;842.05;;;794.72;;
17197;SDS011;8715;51.010;6.812;2023-12-28T06:10:14;843.90;;;796.70;;
17197;SDS011;8715;51.010;6.812;2023-12-28T06:12:59;839.00;;;791.92;;
17197;SDS011;8715;51.010;6.812;2023-12-28T06:15:44;840.08;;;792.95;;
17197;SDS011;8715;51.010;6.812;2023-12-28T06:18:31;834.38;;;788.03;;
17197;SDS011;8715;51.010;6.812;2023-12-28T06:21:16;841.22;;;794.28;;
17197;SDS011;8715;51.010;6.812;2023-12-28T06:24:01;842.60;;;795.60;;
17197;SDS011;8715;51.010;6.812;2023-12-28T06:26:46;836.72;;;789.80;;
17197;SDS011;8715;51.010;6.812;2023-12-28T06:29:31;845.10;;;797.03;;
17197;SDS011;8715;51.010;6.812;2023-12-28T06:32:17;833.35;;;786.72;;
17197;SDS011;8715;51.010;6.812;2023-12-28T06:35:03;842.70;;;794.85;;
17197;SDS011;8715;51.010;6.812;2023-12-28T06:37:48;839.75;;;792.28;;
17197;SDS011;8715;51.010;6.812;2023-12-28T06:40:33;849.17;;;800.78;;
17197;SDS011;8715;51.010;6.812;2023-12-28T06:43:18;837.80;;;790.60;;
17197;SDS011;8715;51.010;6.812;2023-12-28T06:46:03;851.15;;;802.55;;
17197;SDS011;8715;51.010;6.812;2023-12-28T06:48:48;843.97;;;796.05;;
17197;SDS011;8715;51.010;6.812;2023-12-28T06:51:35;845.35;;;797.05;;
17197;SDS011;8715;51.010;6.812;2023-12-28T06:54:20;841.97;;;793.85;;
17197;SDS011;8715;51.010;6.812;2023-12-28T06:57:05;845.22;;;796.65;;
17197;SDS011;8715;51.010;6.812;2023-12-28T06:59:50;864.08;;;813.63;;
17197;SDS011;8715;51.010;6.812;2023-12-28T07:02:35;850.85;;;801.67;;
17197;SDS011;8715;51.010;6.812;2023-12-28T07:05:20;848.95;;;799.95;;
17197;SDS011;8715;51.010;6.812;2023-12-28T07:08:07;844.00;;;795.53;;
17197;SDS011;8715;51.010;6.812;2023-12-28T07:10:52;862.05;;;812.05;;
17197;SDS011;8715;51.010;6.812;2023-12-28T07:13:37;850.47;;;801.30;;
17197;SDS011;8715;51.010;6.812;2023-12-28T07:16:24;845.13;;;796.63;;
17197;SDS011;8715;51.010;6.812;2023-12-28T07:19:10;843.15;;;794.90;;
17197;SDS011;8715;51.010;6.812;2023-12-28T07:21:55;844.00;;;796.00;;
17197;SDS011;8715;51.010;6.812;2023-12-28T07:24:41;849.20;;;799.95;;
17197;SDS011;8715;51.010;6.812;2023-12-28T07:27:26;845.60;;;797.22;;
17197;SDS011;8715;51.010;6.812;2023-12-28T07:30:12;861.67;;;811.88;;
17197;SDS011;8715;51.010;6.812;2023-12-28T07:32:57;842.65;;;794.70;;
17197;SDS011;8715;51.010;6.812;2023-12-28T07:35:42;839.95;;;792.47;;
17197;SDS011;8715;51.010;6.812;2023-12-28T07:38:27;845.17;;;796.90;;
17197;SDS011;8715;51.010;6.812;2023-12-28T07:41:13;840.33;;;792.75;;
17197;SDS011;8715;51.010;6.812;2023-12-28T07:43:59;842.55;;;794.80;;
17197;SDS011;8715;51.010;6.812;2023-12-28T07:46:44;846.10;;;797.80;;
17197;SDS011;8715;51.010;6.812;2023-12-28T07:49:30;843.17;;;795.00;;
17197;SDS011;8715;51.010;6.812;2023-12-28T07:52:15;845.45;;;797.58;;
17197;SDS011;8715;51.010;6.812;2023-12-28T07:55:01;841.88;;;794.40;;
17197;SDS011;8715;51.010;6.812;2023-12-28T07:57:47;845.47;;;797.50;;
17197;SDS011;8715;51.010;6.812;2023-12-28T08:00:32;846.80;;;798.45;;
17197;SDS011;8715;51.010;6.812;2023-12-28T08:03:17;841.40;;;793.33;;
17197;SDS011;8715;51.010;6.812;2023-12-28T08:06:03;845.67;;;797.67;;
17197;SDS011;8715;51.010;6.812;2023-12-28T08:08:48;843.75;;;795.90;;
17197;SDS011;8715;51.010;6.812;2023-12-28T08:11:33;844.22;;;795.97;;
17197;SDS011;8715;51.010;6.812;2023-12-28T08:14:19;860.70;;;810.90;;
17197;SDS011;8715;51.010;6.812;2023-12-28T08:17:04;842.35;;;794.30;;
17197;SDS011;8715;51.010;6.812;2023-12-28T08:19:49;843.00;;;794.83;;
17197;SDS011;8715;51.010;6.812;2023-12-28T08:22:34;843.92;;;795.58;;
17197;SDS011;8715;51.010;6.812;2023-12-28T08:25:19;847.08;;;798.47;;
17197;SDS011;8715;51.010;6.812;2023-12-28T08:28:05;843.05;;;795.08;;
17197;SDS011;8715;51.010;6.812;2023-12-28T08:30:52;845.25;;;797.03;;
17197;SDS011;8715;51.010;6.812;2023-12-28T08:33:36;847.55;;;799.03;;
17197;SDS011;8715;51.010;6.812;2023-12-28T08:36:22;853.67;;;804.58;;
17197;SDS011;8715;51.010;6.812;2023-12-28T08:39:08;845.70;;;797.03;;
17197;SDS011;8715;51.010;6.812;2023-12-28T08:41:52;842.85;;;794.85;;
17197;SDS011;8715;51.010;6.812;2023-12-28T08:44:38;842.15;;;793.90;;
17197;SDS011;8715;51.010;6.812;2023-12-28T08:47:24;849.97;;;801.42;;
17197;SDS011;8715;51.010;6.812;2023-12-28T08:50:09;844.13;;;795.50;;
17197;SDS011;8715;51.010;6.812;2023-12-28T08:52:54;849.22;;;800.17;;
17197;SDS011;8715;51.010;6.812;2023-12-28T08:55:40;847.25;;;798.15;;
17197;SDS011;8715;51.010;6.812;2023-12-28T08:58:25;854.60;;;804.63;;
17197;SDS011;8715;51.010;6.812;2023-12-28T09:01:15;868.17;;;817.15;;
17197;SDS011;8715;51.010;6.812;2023-12-28T09:04:01;849.05;;;799.40;;
17197;SDS011;8715;51.010;6.812;2023-12-28T09:06:46;850.20;;;800.60;;
17197;SDS011;8715;51.010;6.812;2023-12-28T09:09:31;857.50;;;807.33;;
17197;SDS011;8715;51.010;6.812;2023-12-28T09:12:16;852.90;;;803.20;;
17197;SDS011;8715;51.010;6.812;2023-12-28T09:15:01;854.60;;;804.65;;
17197;SDS011;8715;51.010;6.812;2023-12-28T09:17:46;851.65;;;801.30;;
17197;SDS011;8715;51.010;6.812;2023-12-28T09:20:33;867.25;;;816.20;;
17197;SDS011;8715;51.010;6.812;2023-12-28T09:23:19;852.55;;;802.60;;
17197;SDS011;8715;51.010;6.812;2023-12-28T09:26:04;855.13;;;804.90;;
17197;SDS011;8715;51.010;6.812;2023-12-28T09:28:49;858.47;;;807.30;;
17197;SDS011;8715;51.010;6.812;2023-12-28T09:31:34;852.75;;;802.20;;
17197;SDS011;8715;51.010;6.812;2023-12-28T09:34:19;856.08;;;804.95;;
17197;SDS011;8715;51.010;6.812;2023-12-28T09:37:05;860.13;;;808.50;;
17197;SDS011;8715;51.010;6.812;2023-12-28T09:39:50;880.38;;;826.60;;
17197;SDS011;8715;51.010;6.812;2023-12-28T09:42:37;861.70;;;809.45;;
17197;SDS011;8715;51.010;6.812;2023-12-28T09:45:24;859.47;;;807.00;;
17197;SDS011;8715;51.010;6.812;2023-12-28T09:48:10;867.72;;;814.55;;
17197;SDS011;8715;51.010;6.812;2023-12-28T09:50:56;862.28;;;809.33;;
17197;SDS011;8715;51.010;6.812;2023-12-28T09:53:43;865.72;;;811.85;;
17197;SDS011;8715;51.010;6.812;2023-12-28T09:56:28;863.80;;;809.92;;
17197;SDS011;8715;51.010;6.812;2023-12-28T09:59:13;873.25;;;818.50;;
17197;SDS011;8715;51.010;6.812;2023-12-28T10:01:59;877.28;;;822.25;;
17197;SDS011;8715;51.010;6.812;2023-12-28T10:04:45;875.15;;;819.90;;
17197;SDS011;8715;51.010;6.812;2023-12-28T10:07:30;872.95;;;818.03;;
17197;SDS011;8715;51.010;6.812;2023-12-28T10:10:18;875.65;;;820.13;;
17197;SDS011;8715;51.010;6.812;2023-12-28T10:13:06;874.30;;;819.45;;
17197;SDS011;8715;51.010;6.812;2023-12-28T10:15:51;875.53;;;819.65;;
17197;SDS011;8715;51.010;6.812;2023-12-28T10:18:36;872.22;;;816.70;;
17197;SDS011;8715;51.010;6.812;2023-12-28T10:21:22;883.47;;;827.13;;
17197;SDS011;8715;51.010;6.812;2023-12-28T10:24:08;881.92;;;825.08;;
17197;SDS011;8715;51.010;6.812;2023-12-28T10:26:56;879.33;;;822.60;;
17197;SDS011;8715;51.010;6.812;2023-12-28T10:29:42;883.45;;;826.40;;
17197;SDS011;8715;51.010;6.812;2023-12-28T10:32:27;883.63;;;826.35;;
17197;SDS011;8715;51.010;6.812;2023-12-28T10:35:12;884.03;;;826.97;;
17197;SDS011;8715;51.010;6.812;2023-12-28T10:37:57;879.00;;;822.13;;
17197;SDS011;8715;51.010;6.812;2023-12-28T10:40:44;880.67;;;824.05;;
17197;SDS011;8715;51.010;6.812;2023-12-28T10:43:30;881.25;;;823.97;;
17197;SDS011;8715;51.010;6.812;2023-12-28T10:46:20;882.40;;;825.15;;
17197;SDS011;8715;51.010;6.812;2023-12-28T10:49:10;882.45;;;825.35;;
17197;SDS011;8715;51.010;6.812;2023-12-28T10:51:55;877.50;;;820.95;;
17197;SDS011;8715;51.010;6.812;2023-12-28T10:54:41;878.15;;;821.22;;
17197;SDS011;8715;51.010;6.812;2023-12-28T10:57:29;880.97;;;824.05;;
17197;SDS011;8715;51.010;6.812;2023-12-28T11:03:04;880.97;;;824.47;;
17197;SDS011;8715;51.010;6.812;2023-12-28T11:05:50;883.13;;;825.85;;
17197;SDS011;8715;51.010;6.812;2023-12-28T11:08:36;887.45;;;829.47;;
17197;SDS011;8715;51.010;6.812;2023-12-28T11:11:23;884.88;;;827.22;;
17197;SDS011;8715;51.010;6.812;2023-12-28T11:14:08;889.10;;;831.03;;
17197;SDS011;8715;51.010;6.812;2023-12-28T11:16:53;885.58;;;827.60;;
17197;SDS011;8715;51.010;6.812;2023-12-28T11:19:40;888.20;;;830.13;;
17197;SDS011;8715;51.010;6.812;2023-12-28T11:22:26;888.00;;;829.78;;
17197;SDS011;8715;51.010;6.812;2023-12-28T11:25:15;893.60;;;834.03;;
17197;SDS011;8715;51.010;6.812;2023-12-28T11:28:08;911.63;;;850.65;;
17197;SDS011;8715;51.010;6.812;2023-12-28T11:30:53;894.35;;;834.13;;
17197;SDS011;8715;51.010;6.812;2023-12-28T11:33:43;897.97;;;837.38;;
17197;SDS011;8715;51.010;6.812;2023-12-28T11:36:32;896.40;;;835.92;;
17197;SDS011;8715;51.010;6.812;2023-12-28T11:39:20;899.72;;;838.80;;
17197;SDS011;8715;51.010;6.812;2023-12-28T11:42:06;896.53;;;836.10;;
17197;SDS011;8715;51.010;6.812;2023-12-28T11:44:53;910.13;;;849.22;;
17197;SDS011;8715;51.010;6.812;2023-12-28T11:47:38;894.70;;;834.22;;
17197;SDS011;8715;51.010;6.812;2023-12-28T11:50:23;896.50;;;836.20;;
17197;SDS011;8715;51.010;6.812;2023-12-28T11:53:10;910.80;;;849.42;;
17197;SDS011;8715;51.010;6.812;2023-12-28T11:55:59;890.28;;;830.17;;
17197;SDS011;8715;51.010;6.812;2023-12-28T11:58:46;897.50;;;836.30;;
17197;SDS011;8715;51.010;6.812;2023-12-28T12:01:31;909.72;;;848.40;;
17197;SDS011;8715;51.010;6.812;2023-12-28T12:04:16;908.05;;;845.50;;
17197;SDS011;8715;51.010;6.812;2023-12-28T12:07:02;917.05;;;853.88;;
17197;SDS011;8715;51.010;6.812;2023-12-28T12:09:49;902.90;;;840.42;;
17197;SDS011;8715;51.010;6.812;2023-12-28T12:12:34;905.45;;;842.70;;
17197;SDS011;8715;51.010;6.812;2023-12-28T12:15:19;903.53;;;840.72;;
17197;SDS011;8715;51.010;6.812;2023-12-28T12:18:04;917.40;;;853.95;;
17197;SDS011;8715;51.010;6.812;2023-12-28T12:20:49;903.28;;;841.05;;
17197;SDS011;8715;51.010;6.812;2023-12-28T12:23:34;900.65;;;838.78;;
17197;SDS011;8715;51.010;6.812;2023-12-28T12:26:21;902.75;;;840.72;;
17197;SDS011;8715;51.010;6.812;2023-12-28T12:29:06;913.55;;;851.03;;
17197;SDS011;8715;51.010;6.812;2023-12-28T12:31:51;901.85;;;840.20;;
17197;SDS011;8715;51.010;6.812;2023-12-28T12:34:37;899.67;;;837.83;;
17197;SDS011;8715;51.010;6.812;2023-12-28T12:37:23;895.58;;;834.63;;
17197;SDS011;8715;51.010;6.812;2023-12-28T12:40:08;901.53;;;839.67;;
17197;SDS011;8715;51.010;6.812;2023-12-28T12:42:55;897.42;;;836.75;;
17197;SDS011;8715;51.010;6.812;2023-12-28T12:45:40;911.08;;;849.45;;
17197;SDS011;8715;51.010;6.812;2023-12-28T12:48:24;894.05;;;833.55;;
17197;SDS011;8715;51.010;6.812;2023-12-28T12:51:10;897.92;;;837.00;;
17197;SDS011;8715;51.010;6.812;2023-12-28T12:53:56;896.30;;;835.63;;
17197;SDS011;8715;51.010;6.812;2023-12-28T12:56:41;894.85;;;834.58;;
17197;SDS011;8715;51.010;6.812;2023-12-28T12:59:30;891.42;;;831.33;;
17197;SDS011;8715;51.010;6.812;2023-12-28T13:02:15;895.92;;;835.40;;
17197;SDS011;8715;51.010;6.812;2023-12-28T13:05:01;897.50;;;837.03;;
17197;SDS011;8715;51.010;6.812;2023-12-28T13:07:47;896.58;;;836.15;;
17197;SDS011;8715;51.010;6.812;2023-12-28T13:10:32;894.60;;;834.10;;
17197;SDS011;8715;51.010;6.812;2023-12-28T13:13:17;893.58;;;833.72;;
17197;SDS011;8715;51.010;6.812;2023-12-28T13:16:04;897.60;;;837.22;;
17197;SDS011;8715;51.010;6.812;2023-12-28T13:18:49;897.25;;;836.65;;
17197;SDS011;8715;51.010;6.812;2023-12-28T13:21:34;897.53;;;836.83;;
17197;SDS011;8715;51.010;6.812;2023-12-28T13:24:19;893.30;;;833.35;;
17197;SDS011;8715;51.010;6.812;2023-12-28T13:27:04;911.35;;;850.22;;
17197;SDS011;8715;51.010;6.812;2023-12-28T13:29:49;896.97;;;836.30;;
17197;SDS011;8715;51.010;6.812;2023-12-28T13:32:36;894.60;;;834.45;;
17197;SDS011;8715;51.010;6.812;2023-12-28T13:35:20;895.13;;;835.15;;
17197;SDS011;8715;51.010;6.812;2023-12-28T13:38:05;894.28;;;834.17;;
17197;SDS011;8715;51.010;6.812;2023-12-28T13:40:50;893.10;;;833.42;;
17197;SDS011;8715;51.010;6.812;2023-12-28T13:43:35;896.67;;;836.78;;
17197;SDS011;8715;51.010;6.812;2023-12-28T13:46:20;909.40;;;848.88;;
17197;SDS011;8715;51.010;6.812;2023-12-28T13:49:07;895.08;;;835.20;;
17197;SDS011;8715;51.010;6.812;2023-12-28T13:51:52;893.88;;;834.50;;
17197;SDS011;8715;51.010;6.812;2023-12-28T13:54:37;891.15;;;832.00;;
17197;SDS011;8715;51.010;6.812;2023-12-28T13:57:22;892.47;;;833.28;;
17197;SDS011;8715;51.010;6.812;2023-12-28T14:00:07;907.03;;;846.80;;
17197;SDS011;8715;51.010;6.812;2023-12-28T14:02:53;895.95;;;835.78;;
17197;SDS011;8715;51.010;6.812;2023-12-28T14:05:39;890.95;;;832.00;;
17197;SDS011;8715;51.010;6.812;2023-12-28T14:08:26;890.33;;;831.35;;
17197;SDS011;8715;51.010;6.812;2023-12-28T14:11:11;891.20;;;832.20;;
17197;SDS011;8715;51.010;6.812;2023-12-28T14:13:56;890.40;;;831.33;;
17197;SDS011;8715;51.010;6.812;2023-12-28T14:16:41;890.95;;;831.85;;
17197;SDS011;8715;51.010;6.812;2023-12-28T14:19:26;888.25;;;829.83;;
17197;SDS011;8715;51.010;6.812;2023-12-28T14:22:13;889.25;;;830.63;;
17197;SDS011;8715;51.010;6.812;2023-12-28T14:24:58;886.83;;;828.20;;
17197;SDS011;8715;51.010;6.812;2023-12-28T14:27:43;887.88;;;829.42;;
17197;SDS011;8715;51.010;6.812;2023-12-28T14:30:28;891.22;;;832.47;;
17197;SDS011;8715;51.010;6.812;2023-12-28T14:33:14;901.75;;;842.45;;
17197;SDS011;8715;51.010;6.812;2023-12-28T14:35:59;904.75;;;845.35;;
17197;SDS011;8715;51.010;6.812;2023-12-28T14:38:47;890.33;;;831.50;;
17197;SDS011;8715;51.010;6.812;2023-12-28T14:41:32;887.58;;;829.28;;
17197;SDS011;8715;51.010;6.812;2023-12-28T14:44:17;887.45;;;828.92;;
17197;SDS011;8715;51.010;6.812;2023-12-28T14:47:02;883.55;;;825.58;;
17197;SDS011;8715;51.010;6.812;2023-12-28T14:49:48;881.22;;;823.65;;
17197;SDS011;8715;51.010;6.812;2023-12-28T14:52:33;884.33;;;826.30;;
17197;SDS011;8715;51.010;6.812;2023-12-28T14:58:09;880.25;;;823.47;;
17197;SDS011;8715;51.010;6.812;2023-12-28T15:00:54;887.55;;;830.40;;
17197;SDS011;8715;51.010;6.812;2023-12-28T15:03:40;877.40;;;820.65;;
17197;SDS011;8715;51.010;6.812;2023-12-28T15:06:25;881.90;;;824.63;;
17197;SDS011;8715;51.010;6.812;2023-12-28T15:09:10;884.55;;;826.83;;
17197;SDS011;8715;51.010;6.812;2023-12-28T15:11:55;883.00;;;826.05;;
17197;SDS011;8715;51.010;6.812;2023-12-28T15:14:42;882.67;;;825.25;;
17197;SDS011;8715;51.010;6.812;2023-12-28T15:17:27;882.88;;;826.13;;
17197;SDS011;8715;51.010;6.812;2023-12-28T15:20:13;880.80;;;824.17;;
17197;SDS011;8715;51.010;6.812;2023-12-28T15:22:58;872.78;;;816.85;;
17197;SDS011;8715;51.010;6.812;2023-12-28T15:25:43;879.67;;;823.17;;
17197;SDS011;8715;51.010;6.812;2023-12-28T15:28:28;876.85;;;820.53;;
17197;SDS011;8715;51.010;6.812;2023-12-28T15:31:15;877.40;;;821.33;;
17197;SDS011;8715;51.010;6.812;2023-12-28T15:34:00;887.03;;;830.72;;
17197;SDS011;8715;51.010;6.812;2023-12-28T15:36:45;890.88;;;834.10;;
17197;SDS011;8715;51.010;6.812;2023-12-28T15:39:31;879.88;;;824.22;;
17197;SDS011;8715;51.010;6.812;2023-12-28T15:42:17;876.58;;;820.67;;
17197;SDS011;8715;51.010;6.812;2023-12-28T15:45:02;873.25;;;818.20;;
17197;SDS011;8715;51.010;6.812;2023-12-28T15:47:49;879.17;;;823.38;;
17197;SDS011;8715;51.010;6.812;2023-12-28T15:50:34;875.58;;;820.33;;
17197;SDS011;8715;51.010;6.812;2023-12-28T15:53:19;873.58;;;818.80;;
17197;SDS011;8715;51.010;6.812;2023-12-28T15:56:05;868.22;;;814.05;;
17197;SDS011;8715;51.010;6.812;2023-12-28T15:58:50;871.63;;;817.55;;